createdAt,value
2022-08-31T00:00:31.674Z,17.30
2022-08-31T00:03:43.371Z,17.30
2022-08-31T00:06:10.352Z,17.30
2022-08-31T00:08:37.404Z,17.30
2022-08-31T00:11:08.379Z,17.30
2022-08-31T00:13:37.140Z,17.30
2022-08-31T00:16:04.470Z,17.30
2022-08-31T00:18:31.536Z,17.30
2022-08-31T00:20:58.591Z,17.30
2022-08-31T00:23:25.935Z,17.30
2022-08-31T00:25:53.316Z,17.30
2022-08-31T00:28:20.775Z,17.20
2022-08-31T00:30:48.718Z,17.20
2022-08-31T00:33:16.311Z,17.20
2022-08-31T00:35:43.562Z,17.20
2022-08-31T00:38:12.248Z,17.10
2022-08-31T00:40:45.041Z,17.10
2022-08-31T00:43:30.821Z,17.00
2022-08-31T00:45:58.185Z,17.00
2022-08-31T00:48:25.256Z,17.00
2022-08-31T00:50:52.763Z,17.00
2022-08-31T00:53:20.119Z,17.00
2022-08-31T00:55:47.494Z,17.00
2022-08-31T00:58:15.012Z,17.00
2022-08-31T01:00:43.368Z,17.00
2022-08-31T01:03:11.121Z,17.00
2022-08-31T01:05:40.227Z,17.00
2022-08-31T01:08:08.119Z,17.00
2022-08-31T01:10:43.949Z,17.00
2022-08-31T01:13:13.657Z,16.90
2022-08-31T01:15:44.646Z,17.00
2022-08-31T01:18:12.311Z,16.90
2022-08-31T01:20:58.231Z,16.90
2022-08-31T01:23:26.674Z,16.80
2022-08-31T01:25:56.627Z,16.90
2022-08-31T01:28:24.370Z,16.90
2022-08-31T01:31:18.911Z,16.80
2022-08-31T01:33:46.056Z,16.80
2022-08-31T01:36:16.252Z,16.80
2022-08-31T01:38:44.544Z,16.80
2022-08-31T01:41:13.073Z,16.80
2022-08-31T01:43:41.618Z,16.80
2022-08-31T01:46:10.812Z,16.70
2022-08-31T01:48:41.579Z,16.70
2022-08-31T01:51:10.730Z,16.70
2022-08-31T01:53:42.176Z,16.70
2022-08-31T01:56:19.280Z,16.70
2022-08-31T01:58:46.425Z,16.70
2022-08-31T02:01:37.417Z,16.70
2022-08-31T02:04:08.492Z,16.70
2022-08-31T02:06:36.009Z,16.80
2022-08-31T02:09:05.953Z,16.70
2022-08-31T02:11:33.428Z,16.80
2022-08-31T02:14:00.601Z,16.70
2022-08-31T02:16:28.330Z,16.80
2022-08-31T02:18:55.661Z,16.80
2022-08-31T02:21:23.041Z,16.80
2022-08-31T02:23:50.310Z,16.80
2022-08-31T02:26:17.653Z,16.80
2022-08-31T02:28:46.902Z,16.80
2022-08-31T02:31:14.389Z,16.80
2022-08-31T02:33:49.192Z,16.80
2022-08-31T02:36:16.740Z,16.80
2022-08-31T02:38:44.208Z,16.80
2022-08-31T02:41:11.266Z,16.70
2022-08-31T02:43:40.643Z,16.70
2022-08-31T02:46:07.766Z,16.70
2022-08-31T02:48:41.350Z,16.70
2022-08-31T02:51:12.201Z,16.70
2022-08-31T02:53:39.538Z,16.70
2022-08-31T02:56:08.210Z,16.70
2022-08-31T02:58:37.859Z,16.70
2022-08-31T03:01:04.907Z,16.70
2022-08-31T03:03:34.900Z,16.60
2022-08-31T03:06:02.771Z,16.60
2022-08-31T03:08:31.042Z,16.60
2022-08-31T03:10:58.940Z,16.60
2022-08-31T03:13:26.032Z,16.60
2022-08-31T03:15:53.067Z,16.60
2022-08-31T03:18:21.507Z,16.60
2022-08-31T03:20:48.717Z,16.50
2022-08-31T03:23:15.820Z,16.40
2022-08-31T03:25:42.931Z,16.40
2022-08-31T03:28:10.430Z,16.40
2022-08-31T03:30:41.004Z,16.40
2022-08-31T03:33:10.999Z,16.50
2022-08-31T03:35:38.166Z,16.50
2022-08-31T03:38:05.548Z,16.50
2022-08-31T03:40:33.173Z,16.40
2022-08-31T03:43:00.233Z,16.40
2022-08-31T03:45:28.350Z,16.40
2022-08-31T03:47:55.932Z,16.40
2022-08-31T03:50:25.572Z,16.50
2022-08-31T03:53:09.610Z,16.40
2022-08-31T03:55:40.000Z,16.50
2022-08-31T03:58:08.673Z,16.40
2022-08-31T04:00:38.730Z,16.40
2022-08-31T04:03:15.318Z,16.40
2022-08-31T04:06:00.734Z,16.40
2022-08-31T04:08:46.137Z,16.40
2022-08-31T04:11:45.119Z,16.40
2022-08-31T04:14:32.052Z,16.40
2022-08-31T04:17:22.022Z,16.40
2022-08-31T04:19:56.091Z,16.40
2022-08-31T04:22:29.281Z,16.30
2022-08-31T04:25:14.790Z,16.30
2022-08-31T04:27:45.273Z,16.30
2022-08-31T04:30:12.812Z,16.30
2022-08-31T04:32:40.475Z,16.30
2022-08-31T04:35:08.691Z,16.30
2022-08-31T04:37:35.762Z,16.30
2022-08-31T04:40:03.656Z,16.20
2022-08-31T04:42:31.998Z,16.20
2022-08-31T04:44:59.205Z,16.20
2022-08-31T04:47:26.599Z,16.20
2022-08-31T04:49:53.713Z,16.20
2022-08-31T04:52:22.000Z,16.10
2022-08-31T04:54:55.872Z,16.10
2022-08-31T04:57:22.903Z,16.00
2022-08-31T04:59:50.060Z,16.00
2022-08-31T05:02:37.577Z,16.00
2022-08-31T05:05:14.380Z,16.00
2022-08-31T05:07:42.981Z,16.00
2022-08-31T05:10:10.352Z,16.00
2022-08-31T05:12:37.430Z,15.90
2022-08-31T05:15:04.884Z,15.90
2022-08-31T05:17:33.176Z,15.90
2022-08-31T05:20:00.322Z,15.90
2022-08-31T05:22:30.355Z,15.90
2022-08-31T05:24:58.597Z,15.90
2022-08-31T05:27:25.643Z,15.80
2022-08-31T05:29:52.637Z,15.80
2022-08-31T05:32:41.388Z,15.80
2022-08-31T05:35:10.520Z,15.80
2022-08-31T05:37:39.140Z,15.80
2022-08-31T05:40:08.315Z,15.80
2022-08-31T05:42:36.098Z,15.80
2022-08-31T05:45:03.242Z,15.80
2022-08-31T05:47:31.166Z,15.90
2022-08-31T05:49:59.023Z,15.90
2022-08-31T05:52:26.776Z,15.90
2022-08-31T05:54:54.669Z,16.00
2022-08-31T05:57:26.326Z,16.00
2022-08-31T05:59:55.066Z,16.00
2022-08-31T06:02:23.311Z,16.10
2022-08-31T06:04:57.405Z,16.10
2022-08-31T06:07:24.505Z,16.20
2022-08-31T06:09:56.225Z,16.20
2022-08-31T06:12:26.166Z,16.20
2022-08-31T06:14:55.555Z,16.20
2022-08-31T06:17:24.366Z,16.20
2022-08-31T06:19:51.760Z,16.20
2022-08-31T06:22:20.231Z,16.20
2022-08-31T06:24:48.333Z,16.20
2022-08-31T06:27:16.285Z,16.10
2022-08-31T06:29:43.495Z,16.10
2022-08-31T06:32:14.694Z,16.10
2022-08-31T06:34:50.195Z,16.10
2022-08-31T06:37:49.603Z,16.10
2022-08-31T06:40:36.945Z,16.00
2022-08-31T06:43:30.155Z,16.10
2022-08-31T06:46:05.693Z,16.10
2022-08-31T06:48:33.256Z,16.10
2022-08-31T06:51:00.564Z,16.10
2022-08-31T06:53:28.923Z,16.10
2022-08-31T06:56:20.920Z,16.10
2022-08-31T06:59:08.149Z,16.20
2022-08-31T07:01:55.456Z,16.20
2022-08-31T07:04:38.741Z,16.20
2022-08-31T07:07:08.204Z,16.30
2022-08-31T07:09:35.660Z,16.40
2022-08-31T07:12:04.438Z,16.40
2022-08-31T07:14:31.785Z,16.50
2022-08-31T07:17:03.042Z,16.60
2022-08-31T07:19:31.549Z,16.60
2022-08-31T07:22:01.212Z,16.70
2022-08-31T07:24:33.283Z,16.80
2022-08-31T07:27:10.064Z,16.80
2022-08-31T07:29:43.157Z,16.80
2022-08-31T07:32:13.756Z,16.80
2022-08-31T07:34:44.088Z,16.90
2022-08-31T07:37:48.111Z,16.90
2022-08-31T07:40:33.865Z,16.90
2022-08-31T07:43:04.559Z,17.00
2022-08-31T07:45:37.301Z,17.00
2022-08-31T07:48:06.999Z,17.10
2022-08-31T07:51:00.189Z,17.10
2022-08-31T07:53:54.464Z,17.20
2022-08-31T07:56:42.162Z,17.20
2022-08-31T07:59:11.421Z,17.30
2022-08-31T08:01:41.427Z,17.40
2022-08-31T08:04:13.327Z,17.50
2022-08-31T08:07:00.837Z,17.50
2022-08-31T08:10:07.077Z,17.60
2022-08-31T08:12:48.436Z,17.60
2022-08-31T08:15:38.756Z,17.60
2022-08-31T08:18:11.120Z,17.60
2022-08-31T08:20:43.563Z,17.70
2022-08-31T08:23:14.606Z,17.80
2022-08-31T08:26:01.235Z,17.80
2022-08-31T08:28:48.316Z,17.90
2022-08-31T08:31:18.652Z,18.00
2022-08-31T08:33:46.065Z,18.00
2022-08-31T08:36:18.629Z,18.10
2022-08-31T08:38:48.886Z,18.10
2022-08-31T08:41:26.593Z,18.00
2022-08-31T08:44:00.778Z,18.10
2022-08-31T08:46:50.950Z,18.10
2022-08-31T08:49:29.232Z,18.20
2022-08-31T08:52:05.500Z,18.30
2022-08-31T08:54:42.382Z,18.30
2022-08-31T08:57:18.484Z,18.40
2022-08-31T08:59:51.123Z,18.50
2022-08-31T09:02:23.288Z,18.60
2022-08-31T09:05:30.840Z,18.70
2022-08-31T09:08:32.284Z,18.80
2022-08-31T09:11:19.476Z,18.80
2022-08-31T09:14:11.263Z,19.00
2022-08-31T09:17:25.077Z,19.00
2022-08-31T09:20:05.864Z,19.10
2022-08-31T09:22:50.768Z,19.20
2022-08-31T09:25:37.545Z,19.20
2022-08-31T09:28:36.256Z,19.10
2022-08-31T09:31:03.726Z,19.20
2022-08-31T09:33:34.668Z,19.10
2022-08-31T09:36:22.591Z,19.20
2022-08-31T09:38:50.280Z,19.30
2022-08-31T09:41:22.862Z,19.30
2022-08-31T09:43:50.623Z,19.20
2022-08-31T09:46:30.600Z,19.10
2022-08-31T09:48:59.870Z,19.10
2022-08-31T09:51:38.429Z,19.10
2022-08-31T09:54:41.991Z,19.10
2022-08-31T09:57:11.552Z,19.10
2022-08-31T09:59:44.540Z,19.30
2022-08-31T10:02:26.217Z,19.30
2022-08-31T10:04:59.328Z,19.40
2022-08-31T10:07:44.802Z,19.40
2022-08-31T10:10:29.979Z,19.50
2022-08-31T10:13:16.631Z,19.60
2022-08-31T10:16:00.185Z,19.90
2022-08-31T10:18:39.634Z,20.00
2022-08-31T10:21:11.357Z,19.90
2022-08-31T10:23:54.556Z,19.90
2022-08-31T10:26:36.872Z,19.90
2022-08-31T10:29:28.515Z,20.00
2022-08-31T10:31:58.896Z,20.00
2022-08-31T10:34:51.342Z,20.10
2022-08-31T10:37:31.604Z,20.20
2022-08-31T10:40:07.067Z,20.40
2022-08-31T10:42:50.230Z,20.60
2022-08-31T10:45:24.806Z,20.70
2022-08-31T10:47:55.454Z,20.70
2022-08-31T10:50:28.681Z,20.80
2022-08-31T10:53:42.670Z,20.90
2022-08-31T10:56:39.804Z,21.10
2022-08-31T10:59:46.222Z,21.20
2022-08-31T11:02:43.166Z,21.20
2022-08-31T11:05:35.265Z,21.10
2022-08-31T11:08:14.113Z,21.20
2022-08-31T11:10:55.490Z,21.40
2022-08-31T11:13:57.225Z,21.60
2022-08-31T11:16:55.433Z,21.60
2022-08-31T11:19:41.645Z,21.60
2022-08-31T11:22:34.813Z,21.60
2022-08-31T11:25:29.398Z,23.20
2022-08-31T11:28:08.257Z,21.60
2022-08-31T11:30:42.211Z,21.70
2022-08-31T11:33:16.347Z,21.60
2022-08-31T11:36:06.463Z,21.50
2022-08-31T11:39:03.179Z,21.60
2022-08-31T11:41:47.710Z,21.70
2022-08-31T11:44:30.144Z,21.70
2022-08-31T11:47:29.739Z,21.80
2022-08-31T11:50:05.592Z,21.90
2022-08-31T11:52:38.490Z,22.20
2022-08-31T11:55:27.343Z,22.20
2022-08-31T11:58:12.240Z,22.50
2022-08-31T12:00:57.458Z,22.90
2022-08-31T12:03:51.582Z,23.00
2022-08-31T12:06:25.144Z,23.20
2022-08-31T12:09:01.966Z,23.40
2022-08-31T12:11:36.563Z,23.60
2022-08-31T12:14:12.376Z,23.70
2022-08-31T12:17:09.712Z,23.90
2022-08-31T12:20:07.940Z,24.00
2022-08-31T12:23:11.788Z,24.40
2022-08-31T12:26:17.633Z,24.70
2022-08-31T12:29:08.930Z,24.60
2022-08-31T12:31:40.003Z,24.30
2022-08-31T12:34:17.165Z,24.20
2022-08-31T12:36:44.818Z,24.30
2022-08-31T12:39:21.408Z,24.40
2022-08-31T12:41:58.336Z,24.60
2022-08-31T12:44:43.350Z,24.80
2022-08-31T12:47:34.249Z,24.80
2022-08-31T12:50:18.977Z,24.80
2022-08-31T12:53:20.936Z,25.00
2022-08-31T12:56:09.060Z,25.30
2022-08-31T12:59:00.808Z,25.40
2022-08-31T13:01:28.400Z,25.20
2022-08-31T13:04:00.359Z,25.20
2022-08-31T13:06:27.448Z,25.30
2022-08-31T13:08:55.503Z,25.50
2022-08-31T13:11:35.158Z,25.50
2022-08-31T13:14:26.879Z,25.50
2022-08-31T13:17:06.489Z,25.50
2022-08-31T13:19:34.706Z,25.40
2022-08-31T13:22:08.811Z,25.30
2022-08-31T13:24:47.958Z,25.10
2022-08-31T13:27:21.136Z,25.10
2022-08-31T13:29:49.802Z,25.10
2022-08-31T13:32:29.739Z,25.00
2022-08-31T13:34:57.597Z,25.00
2022-08-31T13:37:32.175Z,25.00
2022-08-31T13:40:06.583Z,25.10
2022-08-31T13:42:43.046Z,25.10
2022-08-31T13:45:26.379Z,25.20
2022-08-31T13:48:11.755Z,25.40
2022-08-31T13:50:53.652Z,25.70
2022-08-31T13:53:41.459Z,26.00
2022-08-31T13:56:46.211Z,26.20
2022-08-31T13:59:37.866Z,26.20
2022-08-31T14:02:18.664Z,25.90
2022-08-31T14:04:57.600Z,25.60
2022-08-31T14:07:45.865Z,25.30
2022-08-31T14:10:15.001Z,25.20
2022-08-31T14:13:04.802Z,25.40
2022-08-31T14:15:41.146Z,25.70
2022-08-31T14:18:24.193Z,25.80
2022-08-31T14:21:23.730Z,26.00
2022-08-31T14:23:53.985Z,26.20
2022-08-31T14:26:29.001Z,26.20
2022-08-31T14:29:00.417Z,26.10
2022-08-31T14:31:41.407Z,26.00
2022-08-31T14:34:08.331Z,25.90
2022-08-31T14:36:50.375Z,25.80
2022-08-31T14:39:17.343Z,25.70
2022-08-31T14:41:45.649Z,25.70
2022-08-31T14:44:13.533Z,25.50
2022-08-31T14:46:42.491Z,25.40
2022-08-31T14:49:10.836Z,25.50
2022-08-31T14:51:39.217Z,25.60
2022-08-31T14:54:08.951Z,25.60
2022-08-31T14:56:38.255Z,25.40
2022-08-31T14:59:12.505Z,25.30
2022-08-31T15:01:42.696Z,25.20
2022-08-31T15:04:10.372Z,25.00
2022-08-31T15:06:37.394Z,24.90
2022-08-31T15:09:05.212Z,24.70
2022-08-31T15:11:37.155Z,24.50
2022-08-31T15:14:07.650Z,24.50
2022-08-31T15:16:34.748Z,24.60
2022-08-31T15:19:02.286Z,24.60
2022-08-31T15:21:31.434Z,24.50
2022-08-31T15:23:58.425Z,24.40
2022-08-31T15:26:25.665Z,24.30
2022-08-31T15:28:52.759Z,24.00
2022-08-31T15:31:23.763Z,23.80
2022-08-31T15:33:53.974Z,23.70
2022-08-31T15:36:25.838Z,23.40
2022-08-31T15:38:56.104Z,23.30
2022-08-31T15:41:26.486Z,23.30
2022-08-31T15:43:53.505Z,23.30
2022-08-31T15:46:40.778Z,23.30
2022-08-31T15:49:09.968Z,23.20
2022-08-31T15:51:49.141Z,23.20
2022-08-31T15:54:22.578Z,23.20
2022-08-31T15:56:59.049Z,23.20
2022-08-31T15:59:26.125Z,23.30
2022-08-31T16:01:53.250Z,23.30
2022-08-31T16:04:23.772Z,23.40
2022-08-31T16:06:53.012Z,23.30
2022-08-31T16:09:21.323Z,23.20
2022-08-31T16:11:49.745Z,23.10
2022-08-31T16:14:17.999Z,23.00
2022-08-31T16:16:48.204Z,22.90
2022-08-31T16:19:34.206Z,22.80
2022-08-31T16:22:03.143Z,22.60
2022-08-31T16:24:37.248Z,22.50
2022-08-31T16:27:13.990Z,22.40
2022-08-31T16:29:44.585Z,22.30
2022-08-31T16:32:12.131Z,22.20
2022-08-31T16:34:40.181Z,22.10
2022-08-31T16:37:07.919Z,22.00
2022-08-31T16:39:41.158Z,21.80
2022-08-31T16:42:11.081Z,21.90
2022-08-31T16:44:39.127Z,21.90
2022-08-31T16:47:07.741Z,21.70
2022-08-31T16:49:40.742Z,21.70
2022-08-31T16:52:11.522Z,21.60
2022-08-31T16:54:45.177Z,21.50
2022-08-31T16:57:15.757Z,21.50
2022-08-31T16:59:43.887Z,21.50
2022-08-31T17:02:13.073Z,21.50
2022-08-31T17:04:51.980Z,21.70
2022-08-31T17:07:20.225Z,21.60
2022-08-31T17:09:47.923Z,21.60
2022-08-31T17:12:21.656Z,21.60
2022-08-31T17:14:52.725Z,21.60
2022-08-31T17:17:23.259Z,21.50
2022-08-31T17:19:52.275Z,21.50
2022-08-31T17:22:27.000Z,21.40
2022-08-31T17:24:59.399Z,21.90
2022-08-31T17:27:27.461Z,21.00
2022-08-31T17:30:01.097Z,20.90
2022-08-31T17:32:29.209Z,20.60
2022-08-31T17:34:56.852Z,20.40
2022-08-31T17:37:32.862Z,20.30
2022-08-31T17:40:00.478Z,20.20
2022-08-31T17:42:29.117Z,20.20
2022-08-31T17:44:58.238Z,20.10
2022-08-31T17:47:26.071Z,20.00
2022-08-31T17:49:54.224Z,19.90
2022-08-31T17:52:21.744Z,19.80
2022-08-31T17:54:50.922Z,19.80
2022-08-31T17:57:22.472Z,19.90
2022-08-31T17:59:49.604Z,19.70
2022-08-31T18:02:32.663Z,19.70
2022-08-31T18:05:01.644Z,19.60
2022-08-31T18:07:29.126Z,19.50
2022-08-31T18:09:56.264Z,19.40
2022-08-31T18:12:25.768Z,19.40
2022-08-31T18:14:54.012Z,19.30
2022-08-31T18:17:24.245Z,19.30
2022-08-31T18:19:51.390Z,19.20
2022-08-31T18:22:19.920Z,19.10
2022-08-31T18:24:47.308Z,19.00
2022-08-31T18:27:15.476Z,19.00
2022-08-31T18:29:44.375Z,19.00
2022-08-31T18:32:13.596Z,18.90
2022-08-31T18:34:46.543Z,18.80
2022-08-31T18:37:15.280Z,18.80
2022-08-31T18:40:03.221Z,18.80
2022-08-31T18:42:50.773Z,18.70
2022-08-31T18:45:21.054Z,18.70
2022-08-31T18:50:46.834Z,18.60
2022-08-31T18:53:28.608Z,18.60
2022-08-31T18:56:49.629Z,18.50
2022-08-31T19:00:09.359Z,18.40
2022-08-31T19:02:40.570Z,18.30
2022-08-31T19:05:13.568Z,18.20
2022-08-31T19:07:41.450Z,18.20
2022-08-31T19:10:13.771Z,18.10
2022-08-31T19:12:42.879Z,18.10
2022-08-31T19:15:11.757Z,18.00
2022-08-31T19:17:40.326Z,18.00
2022-08-31T19:20:10.184Z,17.90
2022-08-31T19:22:38.443Z,17.80
2022-08-31T19:25:09.235Z,17.80
2022-08-31T19:27:36.728Z,17.80
2022-08-31T19:30:08.322Z,17.70
2022-08-31T19:32:36.905Z,17.70
2022-08-31T19:35:05.414Z,17.70
2022-08-31T19:37:32.421Z,17.70
2022-08-31T19:39:59.753Z,17.70
2022-08-31T19:45:23.283Z,17.60
2022-08-31T19:47:51.152Z,17.60
2022-08-31T19:50:18.414Z,17.60
2022-08-31T19:52:46.105Z,17.50
2022-08-31T19:55:16.522Z,17.50
2022-08-31T19:57:43.775Z,17.40
2022-08-31T20:00:11.969Z,17.40
2022-08-31T20:02:42.523Z,17.30
2022-08-31T20:05:10.089Z,17.40
2022-08-31T20:07:37.255Z,17.40
2022-08-31T20:10:05.234Z,17.30
2022-08-31T20:12:33.521Z,17.30
2022-08-31T20:15:00.654Z,17.20
2022-08-31T20:17:31.412Z,17.10
2022-08-31T20:20:00.152Z,17.10
2022-08-31T20:22:28.101Z,17.00
2022-08-31T20:24:58.416Z,17.00
2022-08-31T20:27:26.575Z,16.90
2022-08-31T20:29:53.547Z,16.90
2022-08-31T20:32:20.767Z,16.90
2022-08-31T20:35:29.248Z,16.90
2022-08-31T20:37:59.032Z,16.80
2022-08-31T20:40:28.157Z,16.80
2022-08-31T20:42:56.595Z,16.80
2022-08-31T20:45:23.712Z,16.70
2022-08-31T20:52:12.047Z,16.50
2022-08-31T20:54:39.145Z,16.40
2022-08-31T20:57:09.268Z,16.30
2022-08-31T20:59:37.198Z,16.30
2022-08-31T21:02:06.891Z,16.20
2022-08-31T21:04:38.232Z,16.20
2022-08-31T21:07:07.069Z,16.10
2022-08-31T21:09:34.067Z,16.00
2022-08-31T21:12:01.389Z,16.00
2022-08-31T21:14:29.117Z,16.00
2022-08-31T21:16:56.816Z,15.90
2022-08-31T21:19:25.025Z,15.90
2022-08-31T21:21:56.293Z,15.90
2022-08-31T21:24:23.410Z,15.90
2022-08-31T21:26:59.262Z,15.90
2022-08-31T21:29:28.306Z,15.90
2022-08-31T21:32:03.329Z,15.90
2022-08-31T21:34:31.246Z,15.90
2022-08-31T21:36:58.295Z,16.00
2022-08-31T21:39:27.101Z,16.00
2022-08-31T21:41:56.202Z,16.00
2022-08-31T21:44:24.501Z,16.00
2022-08-31T21:46:51.859Z,15.90
2022-08-31T21:49:19.741Z,15.90
2022-08-31T21:51:52.998Z,15.90
2022-08-31T21:54:22.078Z,15.90
2022-08-31T21:56:52.330Z,15.90
2022-08-31T21:59:22.215Z,15.90
2022-08-31T22:01:55.821Z,15.80
2022-08-31T22:04:23.635Z,15.90
2022-08-31T22:06:50.630Z,15.80
2022-08-31T22:09:22.465Z,15.90
2022-08-31T22:11:54.040Z,15.80
2022-08-31T22:14:26.320Z,15.80
2022-08-31T22:16:56.394Z,15.80
2022-08-31T22:19:25.725Z,15.70
2022-08-31T22:21:55.494Z,15.70
2022-08-31T22:24:27.295Z,15.70
2022-08-31T22:26:57.251Z,15.70
2022-08-31T22:29:27.440Z,15.60
2022-08-31T22:31:59.413Z,15.60
2022-08-31T22:34:26.885Z,15.60
2022-08-31T22:36:56.297Z,15.50
2022-08-31T22:39:29.479Z,15.50
2022-08-31T22:41:58.732Z,15.50
2022-08-31T22:44:28.913Z,15.50
2022-08-31T22:46:59.389Z,15.40
2022-08-31T22:49:27.180Z,15.40
2022-08-31T22:51:54.581Z,15.30
2022-08-31T22:54:22.995Z,15.30
2022-08-31T22:56:50.542Z,15.30
2022-08-31T22:59:24.836Z,15.20
2022-08-31T23:01:55.049Z,15.20
2022-08-31T23:04:25.138Z,15.20
2022-08-31T23:06:52.780Z,15.10
2022-08-31T23:09:21.935Z,15.20
2022-08-31T23:11:53.555Z,15.10
2022-08-31T23:14:21.611Z,15.10
2022-08-31T23:16:57.281Z,15.10
2022-08-31T23:19:30.911Z,15.20
2022-08-31T23:21:58.969Z,15.20
2022-08-31T23:24:39.010Z,15.20
2022-08-31T23:27:10.062Z,15.20
2022-08-31T23:29:40.353Z,15.10
2022-08-31T23:32:11.310Z,15.20
2022-08-31T23:34:39.498Z,15.20
2022-08-31T23:37:08.745Z,15.20
2022-08-31T23:39:39.344Z,15.20
2022-08-31T23:42:07.727Z,15.10
2022-08-31T23:44:36.053Z,15.10
2022-08-31T23:47:03.210Z,15.10
2022-08-31T23:49:30.182Z,15.10
2022-08-31T23:51:57.183Z,15.10
2022-08-31T23:54:25.149Z,15.10
2022-08-31T23:56:58.021Z,15.00
2022-08-31T23:59:25.776Z,15.00
